Terminal Aerodrome Forecast
Issued by NWS

Current Version | Previous Version | Text Only | Print | Product List | Glossary On
Versions: 1 2 3 4 5 6 7 8 9 10 11 12 13 14 15 16 17 18 19 20
000
FTUS43 KDLH 291700 AAD
TAFHIB
TAF AMD
KHIB 291702Z 2917/3012 32019G26KT P6SM -RA OVC012
     FM291800 33018G32KT P6SM BKN012 OVC018
     FM300000 30015KT P6SM BKN035=

USA.gov is the U.S. government's official web portal to all federal, state and local government web resources and services.